createdAt,value
2018-07-06T00:01:32.088Z,99.90
2018-07-06T00:04:12.067Z,99.90
2018-07-06T00:06:52.057Z,99.90
2018-07-06T00:09:31.942Z,99.90
2018-07-06T00:12:11.811Z,99.90
2018-07-06T00:14:51.783Z,99.90
2018-07-06T00:17:31.533Z,99.90
2018-07-06T00:20:11.467Z,99.90
2018-07-06T00:22:51.228Z,99.90
2018-07-06T00:25:31.208Z,99.90
2018-07-06T00:28:11.031Z,99.90
2018-07-06T00:30:50.895Z,99.90
2018-07-06T00:33:30.810Z,99.90
2018-07-06T00:36:10.572Z,99.90
2018-07-06T00:38:51.512Z,99.90
2018-07-06T00:41:31.237Z,99.90
2018-07-06T00:44:11.274Z,99.90
2018-07-06T00:46:51.051Z,99.90
2018-07-06T00:49:31.058Z,99.90
2018-07-06T00:52:11.058Z,99.90
2018-07-06T00:54:50.760Z,99.90
2018-07-06T00:57:30.326Z,99.90
2018-07-06T01:00:10.136Z,99.90
2018-07-06T01:02:49.794Z,99.90
2018-07-06T01:05:29.682Z,99.90
2018-07-06T01:08:09.464Z,99.90
2018-07-06T01:10:49.291Z,99.90
2018-07-06T01:13:29.188Z,99.90
2018-07-06T01:16:09.130Z,99.90
2018-07-06T01:18:49.006Z,99.90
2018-07-06T01:21:28.827Z,99.90
2018-07-06T01:24:08.670Z,99.90
2018-07-06T01:26:48.457Z,99.90
2018-07-06T01:29:28.378Z,99.90
2018-07-06T01:32:08.279Z,99.90
2018-07-06T01:34:48.085Z,99.90
2018-07-06T01:37:28.068Z,99.90
2018-07-06T01:40:07.973Z,99.90
2018-07-06T01:42:47.961Z,99.90
2018-07-06T01:45:28.147Z,99.90
2018-07-06T01:48:07.763Z,99.90
2018-07-06T01:50:47.503Z,99.90
2018-07-06T01:53:27.451Z,99.90
2018-07-06T01:56:07.242Z,99.90
2018-07-06T01:58:46.930Z,99.90
2018-07-06T02:01:26.671Z,99.90
2018-07-06T02:04:06.598Z,99.90
2018-07-06T02:06:46.345Z,99.90
2018-07-06T02:09:26.114Z,99.90
2018-07-06T02:12:05.799Z,99.90
2018-07-06T02:14:46.787Z,99.90
2018-07-06T02:17:26.744Z,99.90
2018-07-06T02:20:06.568Z,99.90
2018-07-06T02:22:46.282Z,99.90
2018-07-06T02:25:26.284Z,99.90
2018-07-06T02:28:05.988Z,99.90
2018-07-06T02:30:45.883Z,99.90
2018-07-06T02:33:25.486Z,99.90
2018-07-06T02:36:05.217Z,99.90
2018-07-06T02:38:45.040Z,99.90
2018-07-06T02:41:24.818Z,99.90
2018-07-06T02:44:04.626Z,99.90
2018-07-06T02:46:44.366Z,99.90
2018-07-06T02:49:24.230Z,99.90
2018-07-06T02:52:04.095Z,99.90
2018-07-06T02:54:44.111Z,99.90
2018-07-06T02:57:23.928Z,99.90
2018-07-06T03:00:03.737Z,99.90
2018-07-06T03:02:43.610Z,99.90
2018-07-06T03:05:23.634Z,99.90
2018-07-06T03:08:03.416Z,99.90
2018-07-06T03:10:43.144Z,99.90
2018-07-06T03:13:22.946Z,99.90
2018-07-06T03:16:02.848Z,99.90
2018-07-06T03:18:42.694Z,99.90
2018-07-06T03:21:22.683Z,99.90
2018-07-06T03:24:02.527Z,99.90
2018-07-06T03:26:42.316Z,99.90
2018-07-06T03:29:22.067Z,99.90
2018-07-06T03:32:01.871Z,99.90
2018-07-06T03:34:41.715Z,99.90
2018-07-06T03:37:21.546Z,99.90
2018-07-06T03:40:01.323Z,99.90
2018-07-06T03:45:14.903Z,99.90
2018-07-06T03:47:54.762Z,99.90
2018-07-06T03:50:34.612Z,99.90
2018-07-06T03:53:14.609Z,99.90
2018-07-06T03:55:54.331Z,99.90
2018-07-06T03:58:34.016Z,99.90
2018-07-06T04:01:13.882Z,99.90
2018-07-06T04:03:53.773Z,99.90
2018-07-06T04:06:33.686Z,99.90
2018-07-06T04:09:13.544Z,99.90
2018-07-06T04:11:53.425Z,99.90
2018-07-06T04:14:33.298Z,99.90
2018-07-06T04:17:13.192Z,99.90
2018-07-06T04:19:52.874Z,99.90
2018-07-06T04:22:32.823Z,99.90
2018-07-06T04:25:12.529Z,99.90
2018-07-06T04:27:52.360Z,99.90
2018-07-06T04:30:32.373Z,99.90
2018-07-06T04:33:12.363Z,99.90
2018-07-06T04:35:52.089Z,99.90
2018-07-06T04:38:32.021Z,99.90
2018-07-06T04:41:11.681Z,99.90
2018-07-06T04:43:51.568Z,99.90
2018-07-06T04:46:31.218Z,99.90
2018-07-06T04:49:10.969Z,99.90
2018-07-06T04:51:50.653Z,99.90
2018-07-06T04:54:30.322Z,99.90
2018-07-06T04:57:10.051Z,99.90
2018-07-06T04:59:49.891Z,99.90
2018-07-06T05:02:30.835Z,99.90
2018-07-06T05:05:10.484Z,99.90
2018-07-06T05:07:50.285Z,99.90
2018-07-06T05:10:30.194Z,99.90
2018-07-06T05:13:10.079Z,99.90
2018-07-06T05:15:49.874Z,99.90
2018-07-06T05:18:29.683Z,99.90
2018-07-06T05:21:09.562Z,99.90
2018-07-06T05:23:49.514Z,99.90
2018-07-06T05:26:29.361Z,99.90
2018-07-06T05:29:09.166Z,99.90
2018-07-06T05:31:49.131Z,99.90
2018-07-06T05:34:29.130Z,99.90
2018-07-06T05:37:08.780Z,99.90
2018-07-06T05:39:48.717Z,99.90
2018-07-06T05:42:28.710Z,99.90
2018-07-06T05:45:08.568Z,99.90
2018-07-06T05:47:48.269Z,99.90
2018-07-06T05:50:28.138Z,99.90
2018-07-06T05:53:08.048Z,99.90
2018-07-06T05:55:49.173Z,99.90
2018-07-06T05:58:33.428Z,99.90
2018-07-06T06:01:13.137Z,99.90
2018-07-06T06:03:52.834Z,99.90
2018-07-06T06:06:37.281Z,99.90
2018-07-06T06:09:04.958Z,99.90
2018-07-06T06:11:33.558Z,99.90
2018-07-06T06:14:02.131Z,99.90
2018-07-06T06:16:30.759Z,99.90
2018-07-06T06:18:59.253Z,99.90
2018-07-06T06:21:27.901Z,99.90
2018-07-06T06:23:56.524Z,99.90
2018-07-06T06:26:29.198Z,99.90
2018-07-06T06:28:57.807Z,99.90
2018-07-06T06:31:27.103Z,99.90
2018-07-06T06:33:57.066Z,99.90
2018-07-06T06:36:25.858Z,99.90
2018-07-06T06:38:55.601Z,99.90
2018-07-06T06:41:24.267Z,99.90
2018-07-06T06:43:53.050Z,99.90
2018-07-06T06:46:21.752Z,99.90
2018-07-06T06:48:50.391Z,99.90
2018-07-06T06:51:19.050Z,99.90
2018-07-06T06:53:47.744Z,99.90
2018-07-06T06:56:16.396Z,99.90
2018-07-06T06:58:45.187Z,99.90
2018-07-06T07:03:42.067Z,99.90
2018-07-06T07:06:10.634Z,99.90
2018-07-06T07:08:39.387Z,99.90
2018-07-06T07:11:08.036Z,99.90
2018-07-06T07:13:36.810Z,99.90
2018-07-06T07:16:05.452Z,99.90
2018-07-06T07:18:34.223Z,99.90
2018-07-06T07:21:02.919Z,99.90
2018-07-06T07:23:31.645Z,99.90
2018-07-06T07:26:00.350Z,99.90
2018-07-06T07:28:29.060Z,99.90
2018-07-06T07:30:58.795Z,99.90
2018-07-06T07:33:27.495Z,99.90
2018-07-06T07:35:56.416Z,99.90
2018-07-06T07:38:25.082Z,99.90
2018-07-06T07:43:22.099Z,99.90
2018-07-06T07:45:50.713Z,99.90
2018-07-06T07:48:19.423Z,99.90
2018-07-06T07:51:04.284Z,99.90
2018-07-06T07:53:43.950Z,99.90
2018-07-06T07:56:12.639Z,99.90
2018-07-06T07:58:41.228Z,99.90
2018-07-06T08:01:10.018Z,99.90
2018-07-06T08:03:38.949Z,99.90
2018-07-06T08:06:07.568Z,99.90
2018-07-06T08:08:36.312Z,99.90
2018-07-06T08:11:04.953Z,99.90
2018-07-06T08:13:33.641Z,99.90
2018-07-06T08:16:02.331Z,99.90
2018-07-06T08:18:30.972Z,99.90
2018-07-06T08:20:59.603Z,99.90
2018-07-06T08:23:30.264Z,99.90
2018-07-06T08:25:58.906Z,99.90
2018-07-06T08:28:27.569Z,99.90
2018-07-06T08:30:56.262Z,99.90
2018-07-06T08:33:26.510Z,99.90
2018-07-06T08:36:06.215Z,99.90
2018-07-06T08:38:34.855Z,99.90
2018-07-06T08:41:03.538Z,99.90
2018-07-06T08:43:32.192Z,99.90
2018-07-06T08:46:00.804Z,99.90
2018-07-06T08:48:29.511Z,99.90
2018-07-06T08:50:58.181Z,99.90
2018-07-06T08:53:26.837Z,99.90
2018-07-06T08:55:55.434Z,99.90
2018-07-06T08:58:24.270Z,99.90
2018-07-06T09:00:52.841Z,99.90
2018-07-06T09:03:21.412Z,99.90
2018-07-06T09:05:50.026Z,99.90
2018-07-06T09:08:18.653Z,99.90
2018-07-06T09:10:47.194Z,99.90
2018-07-06T09:13:15.775Z,99.90
2018-07-06T09:15:44.374Z,99.90
2018-07-06T09:18:13.037Z,99.90
2018-07-06T09:20:41.706Z,99.70
2018-07-06T09:23:10.362Z,99.60
2018-07-06T09:25:39.044Z,99.40
2018-07-06T09:28:07.835Z,99.00
2018-07-06T09:30:36.424Z,98.40
2018-07-06T09:33:05.090Z,99.70
2018-07-06T09:35:33.737Z,99.20
2018-07-06T09:38:02.544Z,98.70
2018-07-06T09:40:31.171Z,99.00
2018-07-06T09:42:59.793Z,97.70
2018-07-06T09:45:29.548Z,97.80
2018-07-06T09:47:58.199Z,97.60
2018-07-06T09:50:28.765Z,97.70
2018-07-06T09:55:27.675Z,95.90
2018-07-06T10:00:33.580Z,93.80
2018-07-06T10:03:02.197Z,94.80
2018-07-06T10:05:30.809Z,95.20
2018-07-06T10:10:27.740Z,95.40
2018-07-06T10:12:56.389Z,96.90
2018-07-06T10:15:25.126Z,97.90
2018-07-06T10:17:53.731Z,98.20
2018-07-06T10:20:22.325Z,99.10
2018-07-06T10:22:50.889Z,98.40
2018-07-06T10:25:20.601Z,98.60
2018-07-06T10:30:39.495Z,98.70
2018-07-06T10:33:09.011Z,98.60
2018-07-06T10:35:37.604Z,98.30
2018-07-06T10:38:07.513Z,97.30
2018-07-06T10:40:36.190Z,97.70
2018-07-06T10:43:05.006Z,97.00
2018-07-06T10:45:33.688Z,96.80
2018-07-06T10:48:02.218Z,94.70
2018-07-06T10:50:30.918Z,94.10
2018-07-06T10:53:00.654Z,92.70
2018-07-06T10:55:29.373Z,92.20
2018-07-06T10:57:57.984Z,90.90
2018-07-06T11:00:27.658Z,91.20
2018-07-06T11:02:56.211Z,90.80
2018-07-06T11:05:24.938Z,90.70
2018-07-06T11:07:53.553Z,90.40
2018-07-06T11:10:22.262Z,90.40
2018-07-06T11:12:50.980Z,89.40
2018-07-06T11:15:19.552Z,87.90
2018-07-06T11:17:49.297Z,90.10
2018-07-06T11:20:17.932Z,90.50
2018-07-06T11:22:46.563Z,92.00
2018-07-06T11:25:15.246Z,92.60
2018-07-06T11:27:43.821Z,94.90
2018-07-06T11:30:12.518Z,95.30
2018-07-06T11:32:46.807Z,95.60
2018-07-06T11:35:15.415Z,96.30
2018-07-06T11:37:44.042Z,96.10
2018-07-06T11:45:09.533Z,97.00
2018-07-06T11:47:38.182Z,97.30
2018-07-06T11:50:06.788Z,96.40
2018-07-06T11:52:35.364Z,96.30
2018-07-06T11:55:04.069Z,96.00
2018-07-06T11:57:32.826Z,95.70
2018-07-06T12:00:01.482Z,95.90
2018-07-06T12:02:30.140Z,95.70
2018-07-06T12:04:58.682Z,95.50
2018-07-06T12:07:27.299Z,95.60
2018-07-06T12:09:55.854Z,95.10
2018-07-06T12:12:24.464Z,94.80
2018-07-06T12:14:53.012Z,94.40
2018-07-06T12:17:21.597Z,93.10
2018-07-06T12:19:50.207Z,92.30
2018-07-06T12:22:18.792Z,91.70
2018-07-06T12:24:51.083Z,90.90
2018-07-06T12:27:21.871Z,90.70
2018-07-06T12:29:50.455Z,90.20
2018-07-06T12:34:47.489Z,89.40
2018-07-06T12:37:16.137Z,90.50
2018-07-06T12:39:44.849Z,89.80
2018-07-06T12:42:13.591Z,89.90
2018-07-06T12:44:42.163Z,90.70
2018-07-06T12:47:10.916Z,92.20
2018-07-06T12:49:39.552Z,94.50
2018-07-06T12:52:08.148Z,93.80
2018-07-06T12:54:36.774Z,93.70
2018-07-06T12:57:05.555Z,94.50
2018-07-06T12:59:34.774Z,95.30
2018-07-06T13:04:31.670Z,95.50
2018-07-06T13:07:00.280Z,95.90
2018-07-06T13:09:28.933Z,94.90
2018-07-06T13:11:57.631Z,95.10
2018-07-06T13:14:26.374Z,94.10
2018-07-06T13:16:55.057Z,92.80
2018-07-06T13:21:52.072Z,92.60
2018-07-06T13:24:20.660Z,93.10
2018-07-06T13:26:49.243Z,90.90
2018-07-06T13:29:17.856Z,91.10
2018-07-06T13:31:46.515Z,90.70
2018-07-06T13:34:15.195Z,90.60
2018-07-06T13:36:44.923Z,87.40
2018-07-06T13:39:14.033Z,89.20
2018-07-06T13:41:42.657Z,90.50
2018-07-06T13:44:11.187Z,89.60
2018-07-06T13:46:39.752Z,90.30
2018-07-06T13:49:08.369Z,90.40
2018-07-06T13:51:37.057Z,89.90
2018-07-06T13:54:05.751Z,86.10
2018-07-06T13:56:34.336Z,87.30
2018-07-06T13:59:03.048Z,84.80
2018-07-06T14:01:31.715Z,85.10
2018-07-06T14:04:00.337Z,86.10
2018-07-06T14:06:28.985Z,85.50
2018-07-06T14:08:57.572Z,83.10
2018-07-06T14:11:26.161Z,84.90
2018-07-06T14:13:54.910Z,83.70
2018-07-06T14:16:23.538Z,84.60
2018-07-06T14:18:52.118Z,84.50
2018-07-06T14:23:49.208Z,86.40
2018-07-06T14:26:18.000Z,83.50
2018-07-06T14:28:46.676Z,84.10
2018-07-06T14:31:15.235Z,83.90
2018-07-06T14:33:43.846Z,82.50
2018-07-06T14:36:12.546Z,82.70
2018-07-06T14:38:41.234Z,81.10
2018-07-06T14:41:10.121Z,80.60
2018-07-06T14:43:38.754Z,77.40
2018-07-06T14:46:07.298Z,76.40
2018-07-06T14:48:36.995Z,75.40
2018-07-06T14:51:05.757Z,74.20
2018-07-06T14:53:35.339Z,72.60
2018-07-06T14:56:03.954Z,71.60
2018-07-06T14:58:32.602Z,70.90
2018-07-06T15:01:02.072Z,68.30
2018-07-06T15:03:31.866Z,65.50
2018-07-06T15:06:00.503Z,65.10
2018-07-06T15:08:29.072Z,65.30
2018-07-06T15:10:58.743Z,65.90
2018-07-06T15:13:27.391Z,66.00
2018-07-06T15:15:56.104Z,64.80
2018-07-06T15:18:25.051Z,65.40
2018-07-06T15:20:53.582Z,64.20
2018-07-06T15:23:22.199Z,59.10
2018-07-06T15:25:50.807Z,58.00
2018-07-06T15:28:19.455Z,56.80
2018-07-06T15:30:48.070Z,57.70
2018-07-06T15:33:16.828Z,57.40
2018-07-06T15:35:45.470Z,56.50
2018-07-06T15:38:14.105Z,56.20
2018-07-06T15:40:42.781Z,56.00
2018-07-06T15:43:11.420Z,56.70
2018-07-06T15:48:08.401Z,54.40
2018-07-06T15:50:36.998Z,55.10
2018-07-06T15:53:05.939Z,55.60
2018-07-06T15:55:34.566Z,54.70
2018-07-06T15:58:03.217Z,55.50
2018-07-06T16:00:31.862Z,55.70
2018-07-06T16:03:00.436Z,54.10
2018-07-06T16:05:29.296Z,54.20
2018-07-06T16:10:26.203Z,53.80
2018-07-06T16:12:54.900Z,53.70
2018-07-06T16:15:24.584Z,53.60
2018-07-06T16:17:53.349Z,52.50
2018-07-06T16:20:21.997Z,53.50
2018-07-06T16:22:50.651Z,53.10
2018-07-06T16:25:19.457Z,55.10
2018-07-06T16:27:48.066Z,56.20
2018-07-06T16:30:16.650Z,63.30
2018-07-06T16:32:45.222Z,72.70
2018-07-06T16:35:13.893Z,87.70
2018-07-06T16:37:42.523Z,93.10
2018-07-06T16:40:11.181Z,98.30
2018-07-06T16:42:39.800Z,99.90
2018-07-06T16:45:08.536Z,99.90
2018-07-06T16:47:38.155Z,99.90
2018-07-06T16:50:06.918Z,99.90
2018-07-06T16:52:35.538Z,99.90
2018-07-06T16:57:32.523Z,99.90
2018-07-06T17:00:01.087Z,99.90
2018-07-06T17:02:29.750Z,99.90
2018-07-06T17:04:58.422Z,99.90
2018-07-06T17:07:27.289Z,99.90
2018-07-06T17:09:56.093Z,99.90
2018-07-06T17:12:24.642Z,99.90
2018-07-06T17:14:53.377Z,99.90
2018-07-06T17:17:22.031Z,99.90
2018-07-06T17:19:50.685Z,99.90
2018-07-06T17:24:48.692Z,99.90
2018-07-06T17:27:17.313Z,99.90
2018-07-06T17:29:46.073Z,99.90
2018-07-06T17:32:15.699Z,99.90
2018-07-06T17:34:44.530Z,99.90
2018-07-06T17:37:13.185Z,99.90
2018-07-06T17:39:41.875Z,99.90
2018-07-06T17:42:10.700Z,99.90
2018-07-06T17:44:45.061Z,99.90
2018-07-06T17:47:13.727Z,99.90
2018-07-06T17:49:43.380Z,99.90
2018-07-06T17:52:13.173Z,99.90
2018-07-06T17:54:42.013Z,99.90
2018-07-06T17:57:10.664Z,99.90
2018-07-06T17:59:39.422Z,99.90
2018-07-06T18:02:08.136Z,99.90
2018-07-06T18:04:36.838Z,99.90
2018-07-06T18:07:07.599Z,99.90
2018-07-06T18:09:36.205Z,99.90
2018-07-06T18:12:04.872Z,99.90
2018-07-06T18:14:33.660Z,99.90
2018-07-06T18:19:30.669Z,99.90
2018-07-06T18:21:59.406Z,99.90
2018-07-06T18:24:28.021Z,99.90
2018-07-06T18:26:56.598Z,99.90
2018-07-06T18:29:25.237Z,99.90
2018-07-06T18:31:54.001Z,99.90
2018-07-06T18:34:23.739Z,99.90
2018-07-06T18:36:52.401Z,99.90
2018-07-06T18:39:21.109Z,99.90
2018-07-06T18:41:49.790Z,99.90
2018-07-06T18:44:19.431Z,99.90
2018-07-06T18:46:48.079Z,99.90
2018-07-06T18:49:16.659Z,99.90
2018-07-06T18:51:45.286Z,99.90
2018-07-06T18:54:13.936Z,99.90
2018-07-06T18:56:43.610Z,99.90
2018-07-06T18:59:12.196Z,99.90
2018-07-06T19:01:40.988Z,99.90
2018-07-06T19:04:09.618Z,99.90
2018-07-06T19:06:38.330Z,99.90
2018-07-06T19:09:07.328Z,99.90
2018-07-06T19:11:36.995Z,99.90
2018-07-06T19:14:05.617Z,99.90
2018-07-06T19:16:34.306Z,99.90
2018-07-06T19:19:02.963Z,99.90
2018-07-06T19:21:31.643Z,99.90
2018-07-06T19:24:00.707Z,99.90
2018-07-06T19:26:29.410Z,99.90
2018-07-06T19:29:04.291Z,99.90
2018-07-06T19:31:32.942Z,99.90
2018-07-06T19:34:01.540Z,99.90
2018-07-06T19:36:30.206Z,99.90
2018-07-06T19:38:58.798Z,99.90
2018-07-06T19:41:32.231Z,99.90
2018-07-06T19:44:00.835Z,99.90
2018-07-06T19:46:29.546Z,99.90
2018-07-06T19:48:58.164Z,99.90
2018-07-06T19:51:28.910Z,99.90
2018-07-06T19:53:59.624Z,99.90
2018-07-06T19:56:30.333Z,99.90
2018-07-06T19:58:58.915Z,99.90
2018-07-06T20:01:27.605Z,99.90
2018-07-06T20:03:56.288Z,99.90
2018-07-06T20:06:24.926Z,99.90
2018-07-06T20:08:53.506Z,99.90
2018-07-06T20:11:22.147Z,99.90
2018-07-06T20:13:50.796Z,99.90
2018-07-06T20:16:19.505Z,99.90
2018-07-06T20:18:48.153Z,99.90
2018-07-06T20:21:16.840Z,99.90
2018-07-06T20:23:45.515Z,99.90
2018-07-06T20:26:14.129Z,99.90
2018-07-06T20:28:42.810Z,99.90
2018-07-06T20:31:11.446Z,99.90
2018-07-06T20:33:40.040Z,99.90
2018-07-06T20:38:37.074Z,99.90
2018-07-06T20:41:05.678Z,99.90
2018-07-06T20:43:34.304Z,99.90
2018-07-06T20:46:02.916Z,99.90
2018-07-06T20:48:31.613Z,99.90
2018-07-06T20:51:01.336Z,99.90
2018-07-06T20:53:30.037Z,99.90
2018-07-06T20:55:58.674Z,99.90
2018-07-06T20:58:27.365Z,99.90
2018-07-06T21:00:56.062Z,99.90
2018-07-06T21:03:24.810Z,99.90
2018-07-06T21:05:53.441Z,99.90
2018-07-06T21:08:22.073Z,99.90
2018-07-06T21:10:50.690Z,99.90
2018-07-06T21:13:19.348Z,99.90
2018-07-06T21:15:47.918Z,99.90
2018-07-06T21:18:16.673Z,99.90
2018-07-06T21:20:45.318Z,99.90
2018-07-06T21:23:13.984Z,99.90
2018-07-06T21:25:42.949Z,99.90
2018-07-06T21:28:11.681Z,99.90
2018-07-06T21:30:40.468Z,99.90
2018-07-06T21:33:09.074Z,99.90
2018-07-06T21:35:37.745Z,99.90
2018-07-06T21:38:06.431Z,99.90
2018-07-06T21:40:35.020Z,99.90
2018-07-06T21:43:03.642Z,99.90
2018-07-06T21:45:32.286Z,99.90
2018-07-06T21:48:01.045Z,99.90
2018-07-06T21:50:29.680Z,99.90
2018-07-06T21:52:58.226Z,99.90
2018-07-06T21:55:26.937Z,99.90
2018-07-06T21:57:55.551Z,99.90
2018-07-06T22:00:33.701Z,99.90
2018-07-06T22:03:02.347Z,99.90
2018-07-06T22:05:31.030Z,99.90
2018-07-06T22:07:59.702Z,99.90
2018-07-06T22:10:28.339Z,99.90
2018-07-06T22:12:56.973Z,99.90
2018-07-06T22:15:29.804Z,99.90
2018-07-06T22:17:58.758Z,99.90
2018-07-06T22:20:27.313Z,99.90
2018-07-06T22:22:55.985Z,99.90
2018-07-06T22:25:24.580Z,99.90
2018-07-06T22:27:53.315Z,99.90
2018-07-06T22:32:50.459Z,99.90
2018-07-06T22:35:19.050Z,99.90
2018-07-06T22:37:47.615Z,99.90
2018-07-06T22:40:16.834Z,99.90
2018-07-06T22:42:45.518Z,99.90
2018-07-06T22:45:14.424Z,99.90
2018-07-06T22:47:42.978Z,99.90
2018-07-06T22:50:12.019Z,99.90
2018-07-06T22:52:40.586Z,99.90
2018-07-06T22:57:37.543Z,99.90
2018-07-06T23:00:06.257Z,99.90
2018-07-06T23:02:35.381Z,99.90
2018-07-06T23:05:10.861Z,99.90
2018-07-06T23:07:39.457Z,99.90
2018-07-06T23:12:36.923Z,99.90
2018-07-06T23:15:05.857Z,99.90
2018-07-06T23:17:34.584Z,99.90
2018-07-06T23:20:03.283Z,99.90
2018-07-06T23:22:42.983Z,99.90
2018-07-06T23:25:11.776Z,99.90
2018-07-06T23:27:40.362Z,99.90
2018-07-06T23:30:09.032Z,99.90
2018-07-06T23:32:37.672Z,99.90
2018-07-06T23:35:06.266Z,99.90
2018-07-06T23:37:34.868Z,99.90
2018-07-06T23:40:03.570Z,99.90
2018-07-06T23:42:32.314Z,99.90
2018-07-06T23:45:01.015Z,99.90
2018-07-06T23:47:29.574Z,99.90
2018-07-06T23:49:58.143Z,99.90
2018-07-06T23:52:26.718Z,99.90
2018-07-06T23:54:55.411Z,99.90
2018-07-06T23:57:23.999Z,99.90
2018-07-06T23:59:52.601Z,99.90
